Time;durP1;ratioP1;P1;durP2;ratioP2;P2;SDS_P1;SDS_P2;PMS_P1;PMS_P2;Temp;Humidity;BMP_temperature;BMP_pressure;BME280_temperature;BME280_humidity;BME280_pressure;Samples;Min_cycle;Max_cycle;Signal;HPM_P1;HPM_P2
2022/07/27 00:00:24;;;;;;;2.35;1.02;;;;;;;;;;5001486;28;20026;-74
2022/07/27 00:02:51;;;;;;;2.45;0.90;;;;;;;;;;5002929;28;20057;-75
2022/07/27 00:05:16;;;;;;;1.98;0.90;;;;;;;;;;5001591;28;20651;-73
2022/07/27 00:07:42;;;;;;;1.60;1.08;;;;;;;;;;5008352;28;20060;-74
2022/07/27 00:10:07;;;;;;;2.88;1.10;;;;;;;;;;5002471;28;20038;-74
2022/07/27 00:12:33;;;;;;;2.45;1.00;;;;;;;;;;5004956;28;20022;-72
2022/07/27 00:14:58;;;;;;;2.58;0.80;;;;;;;;;;5004389;28;20031;-74
2022/07/27 00:17:25;;;;;;;4.32;0.93;;;;;;;;;;5004066;28;20052;-74
2022/07/27 00:19:51;;;;;;;3.20;0.95;;;;;;;;;;5005851;28;20462;-74
2022/07/27 00:22:16;;;;;;;1.52;0.90;;;;;;;;;;5008231;28;20037;-74
2022/07/27 00:24:41;;;;;;;4.13;0.80;;;;;;;;;;5005101;28;20500;-74
2022/07/27 00:27:07;;;;;;;4.03;0.80;;;;;;;;;;5005545;28;20042;-74
2022/07/27 00:29:33;;;;;;;2.13;0.70;;;;;;;;;;5000131;28;20037;-74
2022/07/27 00:31:58;;;;;;;1.95;0.77;;;;;;;;;;4998844;28;20034;-74
2022/07/27 00:34:23;;;;;;;2.03;0.80;;;;;;;;;;5006565;28;20080;-73
2022/07/27 00:36:49;;;;;;;2.17;0.77;;;;;;;;;;5005920;28;20052;-74
2022/07/27 00:39:14;;;;;;;3.22;1.00;;;;;;;;;;5005611;28;20038;-74
2022/07/27 00:41:40;;;;;;;1.55;0.60;;;;;;;;;;5002233;28;20113;-74
2022/07/27 00:44:05;;;;;;;2.28;0.80;;;;;;;;;;5000275;28;20164;-74
2022/07/27 00:46:31;;;;;;;2.25;0.82;;;;;;;;;;5005580;28;20056;-72
2022/07/27 00:48:57;;;;;;;2.17;0.80;;;;;;;;;;4999397;28;20553;-74
2022/07/27 00:51:23;;;;;;;1.23;0.80;;;;;;;;;;4999503;28;20032;-73
2022/07/27 00:53:51;;;;;;;1.63;0.70;;;;;;;;;;4999173;28;20033;-74
2022/07/27 00:56:16;;;;;;;1.55;0.80;;;;;;;;;;5007819;28;20050;-74
2022/07/27 00:58:45;;;;;;;1.25;0.90;;;;;;;;;;5005536;28;20080;-73
2022/07/27 01:01:11;;;;;;;2.05;1.00;;;;;;;;;;4998358;28;20028;-74
2022/07/27 01:03:37;;;;;;;2.25;0.80;;;;;;;;;;5006214;28;20029;-74
2022/07/27 01:06:02;;;;;;;1.98;0.80;;;;;;;;;;5005133;28;20037;-73
2022/07/27 01:08:28;;;;;;;1.67;0.73;;;;;;;;;;5004153;28;20108;-73
2022/07/27 01:10:57;;;;;;;3.10;1.00;;;;;;;;;;4998375;28;20037;-74
2022/07/27 01:13:24;;;;;;;1.85;0.90;;;;;;;;;;5004166;28;20110;-74
2022/07/27 01:15:51;;;;;;;2.50;0.90;;;;;;;;;;5006130;28;20037;-74
2022/07/27 01:18:29;;;;;;;1.85;0.80;;;;;;;;;;5002441;28;20049;-74
2022/07/27 01:20:56;;;;;;;1.38;0.90;;;;;;;;;;4999380;28;20497;-72
2022/07/27 01:23:25;;;;;;;2.95;1.13;;;;;;;;;;5005250;28;20037;-74
2022/07/27 01:25:50;;;;;;;2.35;0.95;;;;;;;;;;5021551;28;20021;-73
2022/07/27 01:28:16;;;;;;;1.52;0.90;;;;;;;;;;5004946;28;20030;-74
2022/07/27 01:30:41;;;;;;;1.90;1.00;;;;;;;;;;5003906;28;20033;-74
2022/07/27 01:33:08;;;;;;;4.10;1.10;;;;;;;;;;5002927;28;20033;-74
2022/07/27 01:35:35;;;;;;;1.77;0.90;;;;;;;;;;5007616;28;20030;-74
2022/07/27 01:38:01;;;;;;;2.22;1.08;;;;;;;;;;5007629;28;20041;-74
2022/07/27 01:40:26;;;;;;;2.65;1.10;;;;;;;;;;5000906;28;20029;-73
2022/07/27 01:42:52;;;;;;;1.48;0.85;;;;;;;;;;5005238;28;20032;-73
2022/07/27 01:45:18;;;;;;;3.30;1.20;;;;;;;;;;5002616;28;20048;-73
2022/07/27 01:47:43;;;;;;;1.88;1.00;;;;;;;;;;5003852;28;20172;-74
2022/07/27 01:50:09;;;;;;;4.53;1.05;;;;;;;;;;5002278;28;20377;-74
2022/07/27 01:52:34;;;;;;;4.35;1.10;;;;;;;;;;5001094;28;20545;-73
2022/07/27 01:55:00;;;;;;;2.55;1.00;;;;;;;;;;5002315;28;20022;-74
2022/07/27 01:57:25;;;;;;;1.48;1.10;;;;;;;;;;5004325;28;20029;-74
2022/07/27 01:59:52;;;;;;;1.38;1.00;;;;;;;;;;4996332;28;20052;-74
2022/07/27 02:02:18;;;;;;;2.50;1.00;;;;;;;;;;4994878;28;20390;-74
2022/07/27 02:04:43;;;;;;;3.13;1.00;;;;;;;;;;5004500;28;20038;-72
2022/07/27 02:07:08;;;;;;;3.22;0.98;;;;;;;;;;5018966;28;20470;-74
2022/07/27 02:09:34;;;;;;;2.72;0.90;;;;;;;;;;5002030;28;20038;-72
2022/07/27 02:14:43;;;;;;;2.63;1.00;;;;;;;;;;5005158;28;20028;-73
2022/07/27 02:17:08;;;;;;;2.20;1.10;;;;;;;;;;5001936;28;20030;-74
2022/07/27 02:19:34;;;;;;;3.13;1.25;;;;;;;;;;4998504;28;20058;-74
2022/07/27 02:21:59;;;;;;;2.60;1.08;;;;;;;;;;5007758;28;20034;-74
2022/07/27 02:24:24;;;;;;;1.50;1.00;;;;;;;;;;4999853;28;20076;-74
2022/07/27 02:26:50;;;;;;;1.63;0.95;;;;;;;;;;4999891;28;20092;-74
2022/07/27 02:29:15;;;;;;;2.22;1.10;;;;;;;;;;5001334;28;20067;-74
2022/07/27 02:31:41;;;;;;;2.60;1.02;;;;;;;;;;4997233;28;20030;-74
2022/07/27 02:34:06;;;;;;;4.82;1.20;;;;;;;;;;5002060;28;20124;-74
2022/07/27 02:36:32;;;;;;;1.48;0.90;;;;;;;;;;4999632;28;20053;-74
2022/07/27 02:38:57;;;;;;;2.83;0.90;;;;;;;;;;4998094;28;20045;-74
2022/07/27 02:41:23;;;;;;;1.45;0.90;;;;;;;;;;5006974;28;20036;-74
2022/07/27 02:43:48;;;;;;;1.88;1.20;;;;;;;;;;5002675;28;20029;-74
2022/07/27 02:46:14;;;;;;;2.17;1.00;;;;;;;;;;5002538;28;20378;-74
2022/07/27 02:48:39;;;;;;;1.27;0.90;;;;;;;;;;5005486;28;20072;-74
2022/07/27 02:51:04;;;;;;;1.85;0.90;;;;;;;;;;5005233;28;20033;-74
2022/07/27 02:53:30;;;;;;;3.85;1.10;;;;;;;;;;5000471;28;20052;-74
2022/07/27 02:55:56;;;;;;;1.85;0.98;;;;;;;;;;5000560;28;20034;-74
2022/07/27 02:58:22;;;;;;;2.25;0.93;;;;;;;;;;5000375;28;20682;-74
2022/07/27 03:00:47;;;;;;;1.98;1.15;;;;;;;;;;4998125;28;20034;-73
2022/07/27 03:03:13;;;;;;;5.40;1.20;;;;;;;;;;5003431;28;20030;-74
2022/07/27 03:05:39;;;;;;;2.38;1.40;;;;;;;;;;4996905;28;20045;-73
2022/07/27 03:08:04;;;;;;;1.73;1.10;;;;;;;;;;5004921;28;20034;-74
2022/07/27 03:10:30;;;;;;;3.08;1.30;;;;;;;;;;4999268;28;20122;-74
2022/07/27 03:12:56;;;;;;;2.85;1.10;;;;;;;;;;5000430;28;20041;-73
2022/07/27 03:15:21;;;;;;;2.10;1.15;;;;;;;;;;5003232;28;20394;-74
2022/07/27 03:17:47;;;;;;;3.45;1.25;;;;;;;;;;5003263;28;20022;-74
2022/07/27 03:20:12;;;;;;;2.47;1.30;;;;;;;;;;4997867;28;20041;-74
2022/07/27 03:22:37;;;;;;;3.33;1.20;;;;;;;;;;5001185;28;20049;-74
2022/07/27 03:25:03;;;;;;;3.08;1.23;;;;;;;;;;4998580;28;20025;-74
2022/07/27 03:27:29;;;;;;;2.70;1.30;;;;;;;;;;5003080;28;20112;-74
2022/07/27 03:29:55;;;;;;;2.78;1.30;;;;;;;;;;5001458;28;20068;-74
2022/07/27 03:32:20;;;;;;;3.70;1.30;;;;;;;;;;4998983;28;20560;-74
2022/07/27 03:34:45;;;;;;;2.20;1.30;;;;;;;;;;5012002;28;20029;-73
2022/07/27 03:37:11;;;;;;;1.98;1.20;;;;;;;;;;4998710;28;20054;-73
2022/07/27 03:39:36;;;;;;;4.20;1.38;;;;;;;;;;5003116;28;20402;-74
2022/07/27 03:42:02;;;;;;;2.30;1.13;;;;;;;;;;5002850;28;20022;-74
2022/07/27 03:44:28;;;;;;;2.35;1.30;;;;;;;;;;4997653;28;20033;-74
2022/07/27 03:46:53;;;;;;;2.15;1.05;;;;;;;;;;5001051;28;20034;-74
2022/07/27 03:49:19;;;;;;;2.95;1.20;;;;;;;;;;5004311;28;20037;-73
2022/07/27 03:51:44;;;;;;;2.35;1.10;;;;;;;;;;5004735;28;20025;-73
2022/07/27 03:54:10;;;;;;;2.75;1.20;;;;;;;;;;5002959;28;20076;-72
2022/07/27 03:56:35;;;;;;;1.35;1.00;;;;;;;;;;5004915;28;20336;-74
2022/07/27 03:59:01;;;;;;;2.33;1.17;;;;;;;;;;5005749;28;20065;-74
2022/07/27 04:01:26;;;;;;;5.82;1.40;;;;;;;;;;4999943;28;20028;-74
2022/07/27 04:03:51;;;;;;;2.75;1.50;;;;;;;;;;5008361;28;20022;-74
2022/07/27 04:06:17;;;;;;;2.60;1.30;;;;;;;;;;5001122;28;20050;-73
2022/07/27 04:08:42;;;;;;;3.22;1.40;;;;;;;;;;5005303;28;20026;-74
2022/07/27 04:11:08;;;;;;;3.10;1.20;;;;;;;;;;5006527;28;20121;-74
2022/07/27 04:13:33;;;;;;;3.35;1.50;;;;;;;;;;5005046;28;20080;-73
2022/07/27 04:15:58;;;;;;;3.05;1.23;;;;;;;;;;5002484;28;20038;-74
2022/07/27 04:18:24;;;;;;;4.18;1.30;;;;;;;;;;5007267;28;20494;-74
2022/07/27 04:20:49;;;;;;;3.05;1.55;;;;;;;;;;5005320;28;20112;-74
2022/07/27 04:23:15;;;;;;;2.33;1.40;;;;;;;;;;4999363;28;20166;-74
2022/07/27 04:25:40;;;;;;;2.60;1.60;;;;;;;;;;5001412;28;20025;-73
2022/07/27 04:28:05;;;;;;;2.13;1.40;;;;;;;;;;5001772;28;20378;-73
2022/07/27 04:30:31;;;;;;;2.70;1.40;;;;;;;;;;5001758;28;20037;-74
2022/07/27 04:32:57;;;;;;;3.45;1.50;;;;;;;;;;5006601;28;20434;-73
2022/07/27 04:35:23;;;;;;;3.17;1.50;;;;;;;;;;5003502;28;20030;-73
2022/07/27 04:37:48;;;;;;;2.72;1.50;;;;;;;;;;5000770;28;20137;-74
2022/07/27 04:40:13;;;;;;;3.55;1.35;;;;;;;;;;4997324;28;20025;-74
2022/07/27 04:42:39;;;;;;;3.47;1.40;;;;;;;;;;5003473;28;20026;-73
2022/07/27 04:45:05;;;;;;;4.20;1.73;;;;;;;;;;5005163;28;20124;-74
2022/07/27 04:47:30;;;;;;;3.50;1.70;;;;;;;;;;5000656;28;20030;-74
2022/07/27 04:49:56;;;;;;;3.17;1.50;;;;;;;;;;5002684;28;20042;-73
2022/07/27 04:52:21;;;;;;;2.90;1.50;;;;;;;;;;5007485;28;20104;-73
2022/07/27 04:54:53;;;;;;;3.60;1.67;;;;;;;;;;5006002;28;22863;-74
2022/07/27 04:57:19;;;;;;;3.53;1.88;;;;;;;;;;5001457;28;20574;-74
2022/07/27 04:59:45;;;;;;;3.17;1.77;;;;;;;;;;4997780;28;20049;-74
2022/07/27 05:02:11;;;;;;;2.55;1.50;;;;;;;;;;5002622;28;20029;-72
2022/07/27 05:04:36;;;;;;;3.03;1.60;;;;;;;;;;5002464;28;20032;-74
2022/07/27 05:07:02;;;;;;;2.92;1.75;;;;;;;;;;5009197;28;20573;-74
2022/07/27 05:09:27;;;;;;;4.90;1.85;;;;;;;;;;5006074;28;20483;-74
2022/07/27 05:11:52;;;;;;;5.50;2.00;;;;;;;;;;5008958;28;20034;-74
2022/07/27 05:14:18;;;;;;;4.68;1.80;;;;;;;;;;5008261;28;20029;-76
2022/07/27 05:16:44;;;;;;;4.68;2.13;;;;;;;;;;5006801;28;20029;-74
2022/07/27 05:19:11;;;;;;;3.28;1.80;;;;;;;;;;5009624;28;20454;-74
2022/07/27 05:21:36;;;;;;;4.45;2.25;;;;;;;;;;5010898;28;20549;-72
2022/07/27 05:24:02;;;;;;;5.47;2.33;;;;;;;;;;5010267;28;20022;-74
2022/07/27 05:26:27;;;;;;;2.80;1.70;;;;;;;;;;4998324;28;20505;-74
2022/07/27 05:28:53;;;;;;;4.47;2.25;;;;;;;;;;5006626;28;20053;-72
2022/07/27 05:31:18;;;;;;;4.38;2.58;;;;;;;;;;5005490;28;20453;-74
2022/07/27 05:33:44;;;;;;;3.53;1.85;;;;;;;;;;5006736;28;20496;-74
2022/07/27 05:36:09;;;;;;;3.53;2.20;;;;;;;;;;5007609;28;20069;-72
2022/07/27 05:38:38;;;;;;;4.57;2.35;;;;;;;;;;5007489;28;20026;-73
2022/07/27 05:41:05;;;;;;;2.45;1.58;;;;;;;;;;5011426;28;20109;-73
2022/07/27 05:43:31;;;;;;;3.25;1.77;;;;;;;;;;5004017;28;20419;-74
2022/07/27 05:45:56;;;;;;;3.17;1.83;;;;;;;;;;5001340;28;20065;-74
2022/07/27 05:48:21;;;;;;;7.05;2.33;;;;;;;;;;5004181;28;20359;-74
2022/07/27 05:50:47;;;;;;;5.05;2.00;;;;;;;;;;4999681;28;20577;-76
2022/07/27 05:53:12;;;;;;;2.40;1.70;;;;;;;;;;4991674;28;20479;-76
2022/07/27 05:55:38;;;;;;;3.72;1.92;;;;;;;;;;4996146;28;20101;-75
2022/07/27 05:58:03;;;;;;;3.78;1.73;;;;;;;;;;5016887;28;20113;-75
2022/07/27 06:00:29;;;;;;;3.05;1.70;;;;;;;;;;5002389;28;20030;-75
2022/07/27 06:02:54;;;;;;;3.08;1.60;;;;;;;;;;5003955;28;20482;-75
2022/07/27 06:05:20;;;;;;;3.17;1.63;;;;;;;;;;5004190;28;20025;-76
2022/07/27 06:08:07;;;;;;;3.90;1.40;;;;;;;;;;5003640;28;20029;-75
2022/07/27 06:10:34;;;;;;;4.47;1.80;;;;;;;;;;5000282;28;20030;-75
2022/07/27 06:13:05;;;;;;;4.30;1.38;;;;;;;;;;5002559;28;20075;-75
2022/07/27 06:15:31;;;;;;;5.93;1.45;;;;;;;;;;4996998;28;20318;-75
2022/07/27 06:17:56;;;;;;;3.20;1.42;;;;;;;;;;5002418;28;20037;-75
2022/07/27 06:20:23;;;;;;;4.70;1.30;;;;;;;;;;4999945;28;20844;-75
2022/07/27 06:22:51;;;;;;;3.15;1.23;;;;;;;;;;5004132;28;20492;-75
2022/07/27 06:25:17;;;;;;;2.85;1.20;;;;;;;;;;5000860;28;20029;-75
2022/07/27 06:27:43;;;;;;;1.73;0.98;;;;;;;;;;4999516;28;20052;-74
2022/07/27 06:30:10;;;;;;;1.92;1.08;;;;;;;;;;5001218;28;20044;-76
2022/07/27 06:32:36;;;;;;;3.83;1.35;;;;;;;;;;5005907;28;20604;-75
2022/07/27 06:35:02;;;;;;;2.03;0.90;;;;;;;;;;5001267;28;20121;-75
2022/07/27 06:37:29;;;;;;;4.57;1.50;;;;;;;;;;5005244;28;20053;-75
2022/07/27 06:39:56;;;;;;;1.90;1.10;;;;;;;;;;5001044;28;20111;-75
2022/07/27 06:42:21;;;;;;;2.85;1.35;;;;;;;;;;5001913;28;20030;-74
2022/07/27 06:44:47;;;;;;;2.65;1.33;;;;;;;;;;4997299;28;20022;-75
2022/07/27 06:47:12;;;;;;;1.73;1.20;;;;;;;;;;5002541;28;20045;-75
2022/07/27 06:49:37;;;;;;;2.22;1.13;;;;;;;;;;4998132;28;20103;-75
2022/07/27 06:52:03;;;;;;;2.28;1.10;;;;;;;;;;4999390;28;20386;-76
2022/07/27 06:54:29;;;;;;;3.00;1.25;;;;;;;;;;4999407;28;20083;-75
2022/07/27 06:56:54;;;;;;;2.08;1.20;;;;;;;;;;5005751;28;20036;-75
2022/07/27 06:59:20;;;;;;;3.65;1.20;;;;;;;;;;5003423;28;20022;-75
2022/07/27 07:01:45;;;;;;;4.63;1.30;;;;;;;;;;5002659;28;20034;-75
2022/07/27 07:04:11;;;;;;;2.97;1.15;;;;;;;;;;4999890;28;20030;-75
2022/07/27 07:06:36;;;;;;;3.92;1.17;;;;;;;;;;4999246;28;20025;-74
2022/07/27 07:09:02;;;;;;;2.80;1.20;;;;;;;;;;5011040;28;20052;-75
2022/07/27 07:11:28;;;;;;;3.92;1.75;;;;;;;;;;5000556;28;20418;-74
2022/07/27 07:13:53;;;;;;;4.60;1.55;;;;;;;;;;5001490;28;20036;-75
2022/07/27 07:16:19;;;;;;;3.65;1.40;;;;;;;;;;4998644;28;20021;-75
2022/07/27 07:18:44;;;;;;;2.20;1.20;;;;;;;;;;4996842;28;20145;-75
2022/07/27 07:21:09;;;;;;;2.83;1.33;;;;;;;;;;5003357;28;20179;-75
2022/07/27 07:23:35;;;;;;;3.55;1.20;;;;;;;;;;4996759;28;20058;-75
2022/07/27 07:26:00;;;;;;;2.85;1.10;;;;;;;;;;4994730;28;20018;-75
2022/07/27 07:28:25;;;;;;;3.03;0.90;;;;;;;;;;4997570;28;20121;-75
2022/07/27 07:30:51;;;;;;;3.20;1.02;;;;;;;;;;4994950;28;20033;-75
2022/07/27 07:33:16;;;;;;;2.85;0.82;;;;;;;;;;4995247;28;20041;-74
2022/07/27 07:35:42;;;;;;;3.53;0.93;;;;;;;;;;5003170;28;20084;-75
2022/07/27 07:38:07;;;;;;;2.05;0.90;;;;;;;;;;4998584;28;20478;-75
2022/07/27 07:40:33;;;;;;;1.65;0.70;;;;;;;;;;5004102;28;20061;-75
2022/07/27 07:43:01;;;;;;;4.28;1.02;;;;;;;;;;4998579;28;20096;-75
2022/07/27 07:45:28;;;;;;;3.15;1.10;;;;;;;;;;4998045;28;20064;-75
2022/07/27 07:47:54;;;;;;;2.50;0.80;;;;;;;;;;5001970;28;20076;-74
2022/07/27 07:50:21;;;;;;;3.60;0.93;;;;;;;;;;5002702;28;20041;-75
2022/07/27 07:52:48;;;;;;;2.47;1.13;;;;;;;;;;5011869;28;20068;-75
2022/07/27 07:55:13;;;;;;;3.42;0.85;;;;;;;;;;5000937;28;20028;-75
2022/07/27 07:57:39;;;;;;;4.03;0.82;;;;;;;;;;5003279;28;20033;-75
2022/07/27 08:00:06;;;;;;;3.20;1.02;;;;;;;;;;4999320;28;20033;-76
2022/07/27 08:02:40;;;;;;;2.58;1.05;;;;;;;;;;5002445;28;20030;-75
2022/07/27 08:05:06;;;;;;;2.92;0.80;;;;;;;;;;4994869;28;20034;-75
2022/07/27 08:07:32;;;;;;;2.83;0.88;;;;;;;;;;4997463;28;20033;-75
2022/07/27 08:09:57;;;;;;;4.38;0.70;;;;;;;;;;5002198;28;20026;-75
2022/07/27 08:12:22;;;;;;;3.40;0.80;;;;;;;;;;5004947;28;20529;-74
2022/07/27 08:14:48;;;;;;;4.20;0.98;;;;;;;;;;4995952;28;20394;-74
2022/07/27 08:17:13;;;;;;;4.38;1.20;;;;;;;;;;5000615;28;20375;-74
2022/07/27 08:19:38;;;;;;;2.08;0.90;;;;;;;;;;5001316;28;20395;-74
2022/07/27 08:22:04;;;;;;;3.45;0.80;;;;;;;;;;4999172;28;20481;-75
2022/07/27 08:24:29;;;;;;;3.55;1.02;;;;;;;;;;5001931;28;20783;-75
2022/07/27 08:26:55;;;;;;;2.40;0.70;;;;;;;;;;5000181;28;20564;-75
2022/07/27 08:29:20;;;;;;;3.75;0.73;;;;;;;;;;4999261;28;20355;-76
2022/07/27 08:31:45;;;;;;;2.92;0.60;;;;;;;;;;4999170;28;20032;-75
2022/07/27 08:34:11;;;;;;;1.85;0.65;;;;;;;;;;5000732;28;20029;-75
2022/07/27 08:36:36;;;;;;;3.20;1.00;;;;;;;;;;5012646;28;20054;-76
2022/07/27 08:39:07;;;;;;;3.25;0.90;;;;;;;;;;4993446;28;20029;-75
2022/07/27 08:41:36;;;;;;;2.67;0.70;;;;;;;;;;5000084;28;22270;-75
2022/07/27 08:44:02;;;;;;;1.70;0.73;;;;;;;;;;4998890;28;20026;-74
2022/07/27 08:46:31;;;;;;;2.88;0.73;;;;;;;;;;5005651;28;20560;-74
2022/07/27 08:48:59;;;;;;;2.28;0.90;;;;;;;;;;5004706;28;20084;-75
2022/07/27 08:51:26;;;;;;;3.55;0.98;;;;;;;;;;5005296;28;20087;-76
2022/07/27 08:53:52;;;;;;;2.42;0.80;;;;;;;;;;5005888;28;20060;-75
2022/07/27 08:56:17;;;;;;;3.50;0.90;;;;;;;;;;5005400;28;20053;-76
2022/07/27 08:58:44;;;;;;;3.22;0.77;;;;;;;;;;5003195;28;20452;-75
2022/07/27 09:01:09;;;;;;;2.78;0.80;;;;;;;;;;5001693;28;20120;-75
2022/07/27 09:03:35;;;;;;;2.63;0.80;;;;;;;;;;4999501;28;20113;-75
2022/07/27 09:06:00;;;;;;;2.38;0.80;;;;;;;;;;5001126;28;20034;-74
2022/07/27 09:08:27;;;;;;;2.33;0.60;;;;;;;;;;5005582;28;20142;-75
2022/07/27 09:10:55;;;;;;;2.20;0.68;;;;;;;;;;4997855;28;21558;-76
2022/07/27 09:13:32;;;;;;;2.78;0.50;;;;;;;;;;4998730;28;20509;-74
2022/07/27 09:16:00;;;;;;;1.75;0.55;;;;;;;;;;4999754;28;20044;-76
2022/07/27 09:18:30;;;;;;;3.45;0.90;;;;;;;;;;5000541;28;20048;-75
2022/07/27 09:21:09;;;;;;;3.13;0.80;;;;;;;;;;4996517;28;20052;-76
2022/07/27 09:23:35;;;;;;;2.00;0.60;;;;;;;;;;5003548;28;20025;-74
2022/07/27 09:26:20;;;;;;;2.58;0.60;;;;;;;;;;5005370;28;20030;-76
2022/07/27 09:28:50;;;;;;;2.75;0.80;;;;;;;;;;5010812;28;20029;-76
2022/07/27 09:31:16;;;;;;;1.63;1.08;;;;;;;;;;5008302;28;20036;-76
2022/07/27 09:33:49;;;;;;;2.83;0.82;;;;;;;;;;5006110;28;20406;-76
2022/07/27 09:36:16;;;;;;;1.50;0.70;;;;;;;;;;5007229;28;20034;-76
2022/07/27 09:38:56;;;;;;;2.45;0.82;;;;;;;;;;5010414;28;20030;-76
2022/07/27 09:41:22;;;;;;;2.53;0.93;;;;;;;;;;5007871;28;20022;-75
2022/07/27 09:43:55;;;;;;;2.47;0.70;;;;;;;;;;5008933;28;20062;-76
2022/07/27 09:46:30;;;;;;;;;;;;;;;;;;5012404;28;20114;-77
2022/07/27 09:48:56;;;;;;;2.80;1.02;;;;;;;;;;5006387;28;19913;-74
2022/07/27 09:51:24;;;;;;;4.03;0.98;;;;;;;;;;5013410;28;20296;-75
2022/07/27 09:53:50;;;;;;;2.72;0.90;;;;;;;;;;5010865;28;20113;-75
2022/07/27 09:56:16;;;;;;;2.88;0.85;;;;;;;;;;5014060;28;20486;-75
2022/07/27 09:58:49;;;;;;;2.08;0.80;;;;;;;;;;5008212;28;20091;-75
2022/07/27 10:01:20;;;;;;;;;;;;;;;;;;5011828;28;20033;-76
2022/07/27 10:03:47;;;;;;;1.58;0.70;;;;;;;;;;5009644;28;20433;-74
2022/07/27 10:06:13;;;;;;;2.63;0.70;;;;;;;;;;5013742;28;20104;-75
2022/07/27 10:08:41;;;;;;;1.73;0.80;;;;;;;;;;5004481;28;20652;-76
2022/07/27 10:11:07;;;;;;;4.05;0.88;;;;;;;;;;5011035;28;20022;-76
2022/07/27 10:13:34;;;;;;;2.33;0.80;;;;;;;;;;5010955;28;20086;-74
2022/07/27 10:16:03;;;;;;;2.75;0.80;;;;;;;;;;5013143;28;20105;-76
2022/07/27 10:18:44;;;;;;;3.63;1.30;;;;;;;;;;5013204;28;20116;-76
2022/07/27 10:21:10;;;;;;;2.55;0.70;;;;;;;;;;5009495;28;20227;-73
2022/07/27 10:23:37;;;;;;;2.05;0.80;;;;;;;;;;5012554;28;20033;-75
2022/07/27 10:26:41;;;;;;;2.13;0.73;;;;;;;;;;5011966;28;20022;-75
2022/07/27 10:29:13;;;;;;;2.45;0.80;;;;;;;;;;4967248;28;20031;-74
2022/07/27 10:31:40;;;;;;;3.20;0.82;;;;;;;;;;4967893;28;20038;-76
2022/07/27 10:34:09;;;;;;;2.05;0.57;;;;;;;;;;4973870;28;20038;-76
2022/07/27 10:36:34;;;;;;;2.85;0.70;;;;;;;;;;5009882;28;20057;-76
2022/07/27 10:39:03;;;;;;;1.63;0.70;;;;;;;;;;5004104;28;20060;-75
2022/07/27 10:41:34;;;;;;;1.60;0.57;;;;;;;;;;5007431;28;20068;-76
2022/07/27 10:44:21;;;;;;;6.20;0.95;;;;;;;;;;5007975;28;20056;-75
2022/07/27 10:46:53;;;;;;;1.52;0.60;;;;;;;;;;5008994;28;20034;-75
2022/07/27 10:49:20;;;;;;;1.10;0.50;;;;;;;;;;5010335;28;20053;-74
2022/07/27 10:51:46;;;;;;;3.17;0.70;;;;;;;;;;5013794;28;20038;-75
2022/07/27 10:54:26;;;;;;;3.35;0.70;;;;;;;;;;5010751;28;20548;-75
2022/07/27 10:56:56;;;;;;;4.65;1.25;;;;;;;;;;5005894;28;20037;-75
2022/07/27 10:59:37;;;;;;;2.78;0.70;;;;;;;;;;5009277;28;20022;-75
2022/07/27 11:02:10;;;;;;;3.00;0.68;;;;;;;;;;5007649;28;20117;-75
2022/07/27 11:04:51;;;;;;;1.75;0.60;;;;;;;;;;5010587;28;20573;-75
2022/07/27 11:07:21;;;;;;;1.30;0.65;;;;;;;;;;5006114;28;20026;-75
2022/07/27 11:09:50;;;;;;;2.67;0.80;;;;;;;;;;5011973;28;20072;-74
2022/07/27 11:12:17;;;;;;;2.88;0.80;;;;;;;;;;5006673;28;20490;-75
2022/07/27 11:14:53;;;;;;;2.25;0.80;;;;;;;;;;5009602;28;20040;-75
2022/07/27 11:17:29;;;;;;;2.55;0.95;;;;;;;;;;5011169;28;20113;-75
2022/07/27 11:19:56;;;;;;;3.60;0.80;;;;;;;;;;5013888;28;20026;-75
2022/07/27 11:22:48;;;;;;;2.92;0.95;;;;;;;;;;5010965;28;20573;-75
2022/07/27 11:25:13;;;;;;;1.80;0.70;;;;;;;;;;5010138;28;20052;-75
2022/07/27 11:27:48;;;;;;;2.03;0.70;;;;;;;;;;5010590;28;20073;-75
2022/07/27 11:30:25;;;;;;;1.80;0.60;;;;;;;;;;5010367;28;20041;-74
2022/07/27 11:32:51;;;;;;;4.03;0.60;;;;;;;;;;5012136;28;20045;-74
2022/07/27 11:35:17;;;;;;;3.17;1.02;;;;;;;;;;5008905;28;20073;-75
2022/07/27 11:37:56;;;;;;;1.98;0.55;;;;;;;;;;5017138;28;20046;-75
2022/07/27 11:40:22;;;;;;;2.35;0.95;;;;;;;;;;5011335;28;20026;-74
2022/07/27 11:42:49;;;;;;;1.83;0.80;;;;;;;;;;5008431;28;20579;-74
2022/07/27 11:45:28;;;;;;;2.35;0.57;;;;;;;;;;5010933;28;20104;-74
2022/07/27 11:47:57;;;;;;;2.60;1.05;;;;;;;;;;5012240;28;20060;-75
2022/07/27 11:50:22;;;;;;;1.35;0.65;;;;;;;;;;5012079;28;20034;-75
2022/07/27 11:52:55;;;;;;;2.17;0.77;;;;;;;;;;5002288;28;20033;-75
2022/07/27 11:55:20;;;;;;;2.10;0.70;;;;;;;;;;5011501;28;20409;-75
2022/07/27 11:57:46;;;;;;;3.80;1.10;;;;;;;;;;5011061;28;20144;-75
2022/07/27 12:00:12;;;;;;;4.43;0.82;;;;;;;;;;5010643;28;20520;-75
2022/07/27 12:02:47;;;;;;;1.77;0.70;;;;;;;;;;5011035;28;20030;-73
2022/07/27 12:05:13;;;;;;;1.50;0.68;;;;;;;;;;5016665;28;20030;-75
2022/07/27 12:07:40;;;;;;;3.13;0.80;;;;;;;;;;5011229;28;20048;-74
2022/07/27 12:10:06;;;;;;;3.75;0.75;;;;;;;;;;5016093;28;20042;-74
2022/07/27 12:12:34;;;;;;;4.32;1.00;;;;;;;;;;5018037;28;20418;-75
2022/07/27 12:15:01;;;;;;;2.63;0.88;;;;;;;;;;5016966;28;20069;-74
2022/07/27 12:17:29;;;;;;;3.97;0.60;;;;;;;;;;5018437;28;20025;-74
2022/07/27 12:19:57;;;;;;;5.50;0.80;;;;;;;;;;5018004;28;20064;-73
2022/07/27 12:22:30;;;;;;;2.17;0.60;;;;;;;;;;5015412;28;20126;-73
2022/07/27 12:24:58;;;;;;;2.38;0.73;;;;;;;;;;5014092;28;20036;-75
2022/07/27 12:27:25;;;;;;;1.90;0.70;;;;;;;;;;5017576;28;20032;-75
2022/07/27 12:30:04;;;;;;;2.58;0.75;;;;;;;;;;5019406;28;20038;-75
2022/07/27 12:32:32;;;;;;;1.45;0.70;;;;;;;;;;5016881;28;20021;-75
2022/07/27 12:34:58;;;;;;;4.30;0.70;;;;;;;;;;5017138;28;20033;-75
2022/07/27 12:37:31;;;;;;;1.95;0.75;;;;;;;;;;5016072;28;20057;-75
2022/07/27 12:39:58;;;;;;;4.38;0.93;;;;;;;;;;5012858;28;20028;-75
2022/07/27 12:42:34;;;;;;;1.70;0.70;;;;;;;;;;5017826;28;20018;-75
2022/07/27 12:45:11;;;;;;;1.38;0.60;;;;;;;;;;5013462;28;20363;-75
2022/07/27 12:47:39;;;;;;;2.55;0.70;;;;;;;;;;5014975;28;20026;-75
2022/07/27 12:50:25;;;;;;;3.30;0.90;;;;;;;;;;5015697;28;20456;-75
2022/07/27 12:52:52;;;;;;;1.60;0.70;;;;;;;;;;5016170;28;20114;-73
2022/07/27 12:55:19;;;;;;;0.77;0.43;;;;;;;;;;5015502;28;20466;-74
2022/07/27 12:57:45;;;;;;;2.15;0.60;;;;;;;;;;5014407;28;20018;-74
2022/07/27 13:00:14;;;;;;;1.33;0.50;;;;;;;;;;5018499;28;20470;-75
2022/07/27 13:02:40;;;;;;;0.85;0.57;;;;;;;;;;5017271;28;20069;-75
2022/07/27 13:05:07;;;;;;;3.83;0.80;;;;;;;;;;5018062;28;20049;-75
2022/07/27 13:07:33;;;;;;;1.05;0.55;;;;;;;;;;5015367;28;20363;-75
2022/07/27 13:09:59;;;;;;;2.28;0.68;;;;;;;;;;5015474;28;20018;-74
2022/07/27 13:12:24;;;;;;;3.00;0.70;;;;;;;;;;5014802;28;20030;-75
2022/07/27 13:14:50;;;;;;;2.13;0.70;;;;;;;;;;5014328;28;20026;-75
2022/07/27 13:17:16;;;;;;;1.60;0.57;;;;;;;;;;5013112;28;20029;-74
2022/07/27 13:19:41;;;;;;;2.90;0.60;;;;;;;;;;5013981;28;20486;-73
2022/07/27 13:22:07;;;;;;;3.47;0.60;;;;;;;;;;5013987;28;20026;-74
2022/07/27 13:24:32;;;;;;;0.88;0.52;;;;;;;;;;5001234;28;20064;-75
2022/07/27 13:26:59;;;;;;;2.53;0.75;;;;;;;;;;5001598;28;20022;-75
2022/07/27 13:29:24;;;;;;;2.83;0.77;;;;;;;;;;5009100;28;20132;-75
2022/07/27 13:31:49;;;;;;;1.15;0.55;;;;;;;;;;4999859;28;20117;-75
2022/07/27 13:34:15;;;;;;;1.80;0.50;;;;;;;;;;5002282;28;20380;-73
2022/07/27 13:36:40;;;;;;;1.50;0.60;;;;;;;;;;4999511;28;20467;-75
2022/07/27 13:39:08;;;;;;;2.85;0.50;;;;;;;;;;4994835;28;20034;-73
2022/07/27 13:41:34;;;;;;;4.00;0.85;;;;;;;;;;5005044;28;20569;-74
2022/07/27 13:44:00;;;;;;;1.75;0.90;;;;;;;;;;4997231;28;20030;-73
2022/07/27 13:46:25;;;;;;;2.20;0.60;;;;;;;;;;4999842;28;20022;-75
2022/07/27 13:48:51;;;;;;;3.33;0.50;;;;;;;;;;5012018;28;20125;-74
2022/07/27 13:51:16;;;;;;;1.60;0.75;;;;;;;;;;5002256;28;20481;-74
2022/07/27 13:53:42;;;;;;;1.70;0.43;;;;;;;;;;5004229;28;20080;-75
2022/07/27 13:56:07;;;;;;;1.17;0.60;;;;;;;;;;5001632;28;20022;-75
2022/07/27 13:58:33;;;;;;;2.15;0.60;;;;;;;;;;5004538;28;20120;-74
2022/07/27 14:00:58;;;;;;;4.32;0.60;;;;;;;;;;5008576;28;20040;-73
2022/07/27 14:03:24;;;;;;;2.35;0.50;;;;;;;;;;5004717;28;20496;-74
2022/07/27 14:05:49;;;;;;;1.98;0.60;;;;;;;;;;5007732;28;20032;-75
2022/07/27 14:08:16;;;;;;;2.92;1.13;;;;;;;;;;5005815;28;20025;-74
2022/07/27 14:10:42;;;;;;;3.47;0.60;;;;;;;;;;5002310;28;20025;-75
2022/07/27 14:13:10;;;;;;;1.90;0.60;;;;;;;;;;5003525;28;20034;-74
2022/07/27 14:15:41;;;;;;;1.92;0.52;;;;;;;;;;4996466;28;20030;-75
2022/07/27 14:18:07;;;;;;;3.65;0.70;;;;;;;;;;4996099;28;20029;-75
2022/07/27 14:20:33;;;;;;;2.13;0.80;;;;;;;;;;4997393;28;20381;-74
2022/07/27 14:22:59;;;;;;;2.63;0.73;;;;;;;;;;4991696;28;20038;-75
2022/07/27 14:25:28;;;;;;;1.35;0.40;;;;;;;;;;4996759;28;20122;-74
2022/07/27 14:27:54;;;;;;;1.05;0.60;;;;;;;;;;4992775;28;20551;-74
2022/07/27 14:30:20;;;;;;;3.13;0.70;;;;;;;;;;4994262;28;20060;-74
2022/07/27 14:32:45;;;;;;;0.90;0.50;;;;;;;;;;4994432;28;20029;-74
2022/07/27 14:35:11;;;;;;;3.05;0.60;;;;;;;;;;4992622;28;20033;-74
2022/07/27 14:37:36;;;;;;;3.47;0.77;;;;;;;;;;5001008;28;20568;-74
2022/07/27 14:40:03;;;;;;;1.75;0.45;;;;;;;;;;4996897;28;20044;-74
2022/07/27 14:42:29;;;;;;;1.23;0.60;;;;;;;;;;5001533;28;20112;-74
2022/07/27 14:44:54;;;;;;;1.48;0.60;;;;;;;;;;5000671;28;20028;-74